sensor_id;sensor_type;location;lat;lon;timestamp;P1;durP1;ratioP1;P2;durP2;ratioP2
18023;SDS011;9137;50.960;3.118;2022-07-11T00:00:12;5.15;;;4.75;;
18023;SDS011;9137;50.960;3.118;2022-07-11T00:02:40;5.18;;;4.68;;
18023;SDS011;9137;50.960;3.118;2022-07-11T00:05:08;5.60;;;5.10;;
18023;SDS011;9137;50.960;3.118;2022-07-11T00:07:35;5.32;;;4.82;;
18023;SDS011;9137;50.960;3.118;2022-07-11T00:10:02;5.32;;;4.85;;
18023;SDS011;9137;50.960;3.118;2022-07-11T00:12:31;5.50;;;5.10;;
18023;SDS011;9137;50.960;3.118;2022-07-11T00:14:57;5.60;;;4.70;;
18023;SDS011;9137;50.960;3.118;2022-07-11T00:17:24;5.07;;;4.65;;
18023;SDS011;9137;50.960;3.118;2022-07-11T00:19:51;6.18;;;5.22;;
18023;SDS011;9137;50.960;3.118;2022-07-11T00:22:19;6.68;;;6.00;;
18023;SDS011;9137;50.960;3.118;2022-07-11T00:24:46;6.15;;;5.65;;
18023;SDS011;9137;50.960;3.118;2022-07-11T00:27:13;5.93;;;5.32;;
18023;SDS011;9137;50.960;3.118;2022-07-11T00:29:41;5.75;;;5.25;;
18023;SDS011;9137;50.960;3.118;2022-07-11T00:32:08;6.07;;;5.47;;
18023;SDS011;9137;50.960;3.118;2022-07-11T00:34:35;6.10;;;5.60;;
18023;SDS011;9137;50.960;3.118;2022-07-11T00:37:03;6.55;;;5.95;;
18023;SDS011;9137;50.960;3.118;2022-07-11T00:39:30;6.95;;;6.30;;
18023;SDS011;9137;50.960;3.118;2022-07-11T00:41:57;6.25;;;5.75;;
18023;SDS011;9137;50.960;3.118;2022-07-11T00:44:24;6.30;;;5.70;;
18023;SDS011;9137;50.960;3.118;2022-07-11T00:46:52;6.15;;;5.68;;
18023;SDS011;9137;50.960;3.118;2022-07-11T00:49:20;7.43;;;6.03;;
18023;SDS011;9137;50.960;3.118;2022-07-11T00:51:46;6.20;;;5.70;;
18023;SDS011;9137;50.960;3.118;2022-07-11T00:54:14;6.53;;;5.87;;
18023;SDS011;9137;50.960;3.118;2022-07-11T00:56:45;6.70;;;6.10;;
18023;SDS011;9137;50.960;3.118;2022-07-11T00:59:12;8.93;;;6.57;;
18023;SDS011;9137;50.960;3.118;2022-07-11T01:01:40;7.78;;;6.90;;
18023;SDS011;9137;50.960;3.118;2022-07-11T01:04:08;8.30;;;7.50;;
18023;SDS011;9137;50.960;3.118;2022-07-11T01:06:35;8.15;;;7.32;;
18023;SDS011;9137;50.960;3.118;2022-07-11T01:09:02;7.53;;;6.75;;
18023;SDS011;9137;50.960;3.118;2022-07-11T01:11:29;8.60;;;7.80;;
18023;SDS011;9137;50.960;3.118;2022-07-11T01:13:56;8.77;;;7.93;;
18023;SDS011;9137;50.960;3.118;2022-07-11T01:16:23;8.25;;;7.45;;
18023;SDS011;9137;50.960;3.118;2022-07-11T01:18:51;7.75;;;7.03;;
18023;SDS011;9137;50.960;3.118;2022-07-11T01:21:21;8.05;;;7.30;;
18023;SDS011;9137;50.960;3.118;2022-07-11T01:23:51;8.32;;;7.63;;
18023;SDS011;9137;50.960;3.118;2022-07-11T01:26:20;8.20;;;7.43;;
18023;SDS011;9137;50.960;3.118;2022-07-11T01:28:47;8.40;;;7.50;;
18023;SDS011;9137;50.960;3.118;2022-07-11T01:31:14;8.30;;;7.60;;
18023;SDS011;9137;50.960;3.118;2022-07-11T01:33:41;8.70;;;7.80;;
18023;SDS011;9137;50.960;3.118;2022-07-11T01:36:08;9.05;;;8.15;;
18023;SDS011;9137;50.960;3.118;2022-07-11T01:38:35;9.60;;;8.70;;
18023;SDS011;9137;50.960;3.118;2022-07-11T01:41:04;8.68;;;7.88;;
18023;SDS011;9137;50.960;3.118;2022-07-11T01:43:31;9.05;;;8.18;;
18023;SDS011;9137;50.960;3.118;2022-07-11T01:45:58;7.93;;;7.18;;
18023;SDS011;9137;50.960;3.118;2022-07-11T01:48:25;8.57;;;7.88;;
18023;SDS011;9137;50.960;3.118;2022-07-11T01:50:52;8.27;;;7.57;;
18023;SDS011;9137;50.960;3.118;2022-07-11T01:53:20;9.15;;;8.35;;
18023;SDS011;9137;50.960;3.118;2022-07-11T01:55:47;9.25;;;8.45;;
18023;SDS011;9137;50.960;3.118;2022-07-11T01:58:15;9.48;;;8.45;;
18023;SDS011;9137;50.960;3.118;2022-07-11T02:00:42;9.65;;;8.75;;
18023;SDS011;9137;50.960;3.118;2022-07-11T02:03:09;8.85;;;8.05;;
18023;SDS011;9137;50.960;3.118;2022-07-11T02:05:36;9.45;;;8.55;;
18023;SDS011;9137;50.960;3.118;2022-07-11T02:08:04;9.70;;;8.70;;
18023;SDS011;9137;50.960;3.118;2022-07-11T02:10:38;9.98;;;9.02;;
18023;SDS011;9137;50.960;3.118;2022-07-11T02:13:07;9.07;;;8.27;;
18023;SDS011;9137;50.960;3.118;2022-07-11T02:15:37;9.75;;;8.85;;
18023;SDS011;9137;50.960;3.118;2022-07-11T02:18:04;9.38;;;8.68;;
18023;SDS011;9137;50.960;3.118;2022-07-11T02:20:32;9.85;;;8.88;;
18023;SDS011;9137;50.960;3.118;2022-07-11T02:22:59;10.00;;;9.10;;
18023;SDS011;9137;50.960;3.118;2022-07-11T02:25:27;9.80;;;8.88;;
18023;SDS011;9137;50.960;3.118;2022-07-11T02:27:54;10.25;;;9.35;;
18023;SDS011;9137;50.960;3.118;2022-07-11T02:30:21;16.48;;;10.07;;
18023;SDS011;9137;50.960;3.118;2022-07-11T02:32:50;9.68;;;8.88;;
18023;SDS011;9137;50.960;3.118;2022-07-11T02:35:17;9.90;;;9.05;;
18023;SDS011;9137;50.960;3.118;2022-07-11T02:37:44;10.00;;;9.10;;
18023;SDS011;9137;50.960;3.118;2022-07-11T02:40:11;10.40;;;9.43;;
18023;SDS011;9137;50.960;3.118;2022-07-11T02:42:38;10.40;;;9.43;;
18023;SDS011;9137;50.960;3.118;2022-07-11T02:45:05;10.82;;;9.73;;
18023;SDS011;9137;50.960;3.118;2022-07-11T02:47:33;10.75;;;9.75;;
18023;SDS011;9137;50.960;3.118;2022-07-11T02:50:03;10.40;;;9.40;;
18023;SDS011;9137;50.960;3.118;2022-07-11T02:52:31;10.80;;;9.70;;
18023;SDS011;9137;50.960;3.118;2022-07-11T02:54:59;10.13;;;9.23;;
18023;SDS011;9137;50.960;3.118;2022-07-11T02:57:26;10.32;;;9.43;;
18023;SDS011;9137;50.960;3.118;2022-07-11T02:59:54;11.02;;;10.05;;
18023;SDS011;9137;50.960;3.118;2022-07-11T03:02:21;10.88;;;9.88;;
18023;SDS011;9137;50.960;3.118;2022-07-11T03:04:48;11.60;;;10.60;;
18023;SDS011;9137;50.960;3.118;2022-07-11T03:07:16;11.23;;;10.05;;
18023;SDS011;9137;50.960;3.118;2022-07-11T03:09:43;11.05;;;10.07;;
18023;SDS011;9137;50.960;3.118;2022-07-11T03:12:10;11.02;;;10.10;;
18023;SDS011;9137;50.960;3.118;2022-07-11T03:14:37;11.43;;;10.32;;
18023;SDS011;9137;50.960;3.118;2022-07-11T03:17:04;11.70;;;10.53;;
18023;SDS011;9137;50.960;3.118;2022-07-11T03:19:31;10.50;;;9.57;;
18023;SDS011;9137;50.960;3.118;2022-07-11T03:21:57;12.05;;;10.85;;
18023;SDS011;9137;50.960;3.118;2022-07-11T03:24:26;12.23;;;10.98;;
18023;SDS011;9137;50.960;3.118;2022-07-11T03:26:53;11.68;;;10.63;;
18023;SDS011;9137;50.960;3.118;2022-07-11T03:29:19;13.55;;;10.50;;
18023;SDS011;9137;50.960;3.118;2022-07-11T03:31:47;12.20;;;10.70;;
18023;SDS011;9137;50.960;3.118;2022-07-11T03:34:14;12.35;;;11.15;;
18023;SDS011;9137;50.960;3.118;2022-07-11T03:36:41;11.10;;;10.00;;
18023;SDS011;9137;50.960;3.118;2022-07-11T03:39:11;11.00;;;9.82;;
18023;SDS011;9137;50.960;3.118;2022-07-11T03:41:40;11.93;;;10.80;;
18023;SDS011;9137;50.960;3.118;2022-07-11T03:44:07;10.43;;;9.52;;
18023;SDS011;9137;50.960;3.118;2022-07-11T03:46:34;10.95;;;10.05;;
18023;SDS011;9137;50.960;3.118;2022-07-11T03:49:01;11.80;;;10.63;;
18023;SDS011;9137;50.960;3.118;2022-07-11T03:51:28;11.68;;;10.68;;
18023;SDS011;9137;50.960;3.118;2022-07-11T03:53:55;11.47;;;10.37;;
18023;SDS011;9137;50.960;3.118;2022-07-11T03:56:22;11.55;;;10.50;;
18023;SDS011;9137;50.960;3.118;2022-07-11T03:58:50;10.98;;;9.95;;
18023;SDS011;9137;50.960;3.118;2022-07-11T04:01:17;12.30;;;11.10;;
18023;SDS011;9137;50.960;3.118;2022-07-11T04:03:45;10.88;;;9.77;;
18023;SDS011;9137;50.960;3.118;2022-07-11T04:06:12;11.45;;;10.35;;
18023;SDS011;9137;50.960;3.118;2022-07-11T04:08:39;11.52;;;10.27;;
18023;SDS011;9137;50.960;3.118;2022-07-11T04:11:06;11.90;;;10.82;;
18023;SDS011;9137;50.960;3.118;2022-07-11T04:13:33;12.07;;;10.98;;
18023;SDS011;9137;50.960;3.118;2022-07-11T04:16:02;12.15;;;10.88;;
18023;SDS011;9137;50.960;3.118;2022-07-11T04:18:29;11.77;;;10.68;;
18023;SDS011;9137;50.960;3.118;2022-07-11T04:20:56;11.98;;;10.68;;
18023;SDS011;9137;50.960;3.118;2022-07-11T04:23:23;11.67;;;10.67;;
18023;SDS011;9137;50.960;3.118;2022-07-11T04:25:50;12.00;;;10.80;;
18023;SDS011;9137;50.960;3.118;2022-07-11T04:28:17;11.50;;;10.17;;
18023;SDS011;9137;50.960;3.118;2022-07-11T04:30:44;11.57;;;10.48;;
18023;SDS011;9137;50.960;3.118;2022-07-11T04:33:12;11.90;;;10.70;;
18023;SDS011;9137;50.960;3.118;2022-07-11T04:35:39;12.73;;;11.52;;
18023;SDS011;9137;50.960;3.118;2022-07-11T04:38:07;11.98;;;10.93;;
18023;SDS011;9137;50.960;3.118;2022-07-11T04:40:34;12.63;;;11.43;;
18023;SDS011;9137;50.960;3.118;2022-07-11T04:43:01;12.00;;;10.80;;
18023;SDS011;9137;50.960;3.118;2022-07-11T04:45:27;12.00;;;10.85;;
18023;SDS011;9137;50.960;3.118;2022-07-11T04:47:54;13.05;;;11.60;;
18023;SDS011;9137;50.960;3.118;2022-07-11T04:50:23;11.88;;;10.77;;
18023;SDS011;9137;50.960;3.118;2022-07-11T04:52:50;11.40;;;10.30;;
18023;SDS011;9137;50.960;3.118;2022-07-11T04:55:17;12.27;;;11.18;;
18023;SDS011;9137;50.960;3.118;2022-07-11T04:57:44;12.27;;;11.10;;
18023;SDS011;9137;50.960;3.118;2022-07-11T05:00:11;12.00;;;10.80;;
18023;SDS011;9137;50.960;3.118;2022-07-11T05:02:38;12.57;;;11.37;;
18023;SDS011;9137;50.960;3.118;2022-07-11T05:05:06;14.05;;;12.70;;
18023;SDS011;9137;50.960;3.118;2022-07-11T05:07:35;15.80;;;14.10;;
18023;SDS011;9137;50.960;3.118;2022-07-11T05:10:02;13.87;;;12.67;;
18023;SDS011;9137;50.960;3.118;2022-07-11T05:12:29;14.63;;;13.27;;
18023;SDS011;9137;50.960;3.118;2022-07-11T05:14:56;17.17;;;14.73;;
18023;SDS011;9137;50.960;3.118;2022-07-11T05:17:24;14.38;;;13.05;;
18023;SDS011;9137;50.960;3.118;2022-07-11T05:19:51;17.50;;;15.60;;
18023;SDS011;9137;50.960;3.118;2022-07-11T05:22:18;15.10;;;13.60;;
18023;SDS011;9137;50.960;3.118;2022-07-11T05:24:46;17.08;;;15.13;;
18023;SDS011;9137;50.960;3.118;2022-07-11T05:27:13;17.33;;;15.57;;
18023;SDS011;9137;50.960;3.118;2022-07-11T05:29:40;15.60;;;14.10;;
18023;SDS011;9137;50.960;3.118;2022-07-11T05:32:07;18.33;;;16.50;;
18023;SDS011;9137;50.960;3.118;2022-07-11T05:34:35;18.07;;;16.20;;
18023;SDS011;9137;50.960;3.118;2022-07-11T05:37:02;16.27;;;14.60;;
18023;SDS011;9137;50.960;3.118;2022-07-11T05:39:29;16.35;;;14.77;;
18023;SDS011;9137;50.960;3.118;2022-07-11T05:41:57;16.92;;;15.13;;
18023;SDS011;9137;50.960;3.118;2022-07-11T05:44:24;15.45;;;14.00;;
18023;SDS011;9137;50.960;3.118;2022-07-11T05:46:51;15.35;;;13.85;;
18023;SDS011;9137;50.960;3.118;2022-07-11T05:49:18;17.65;;;15.65;;
18023;SDS011;9137;50.960;3.118;2022-07-11T05:51:45;15.63;;;14.00;;
18023;SDS011;9137;50.960;3.118;2022-07-11T05:54:11;18.27;;;13.93;;
18023;SDS011;9137;50.960;3.118;2022-07-11T05:56:38;17.40;;;14.00;;
18023;SDS011;9137;50.960;3.118;2022-07-11T05:59:07;74.50;;;21.27;;
18023;SDS011;9137;50.960;3.118;2022-07-11T06:01:34;90.25;;;22.45;;
18023;SDS011;9137;50.960;3.118;2022-07-11T06:04:01;25.17;;;13.82;;
18023;SDS011;9137;50.960;3.118;2022-07-11T06:06:28;48.45;;;14.88;;
18023;SDS011;9137;50.960;3.118;2022-07-11T06:08:55;20.13;;;13.40;;
18023;SDS011;9137;50.960;3.118;2022-07-11T06:11:21;35.97;;;14.77;;
18023;SDS011;9137;50.960;3.118;2022-07-11T06:13:48;17.25;;;13.00;;
18023;SDS011;9137;50.960;3.118;2022-07-11T06:16:17;20.90;;;13.20;;
18023;SDS011;9137;50.960;3.118;2022-07-11T06:18:44;14.93;;;12.73;;
18023;SDS011;9137;50.960;3.118;2022-07-11T06:21:11;13.85;;;12.38;;
18023;SDS011;9137;50.960;3.118;2022-07-11T06:23:38;13.25;;;11.95;;
18023;SDS011;9137;50.960;3.118;2022-07-11T06:26:06;13.30;;;11.90;;
18023;SDS011;9137;50.960;3.118;2022-07-11T06:28:33;13.43;;;12.02;;
18023;SDS011;9137;50.960;3.118;2022-07-11T06:31:00;13.57;;;12.20;;
18023;SDS011;9137;50.960;3.118;2022-07-11T06:33:29;12.23;;;11.13;;
18023;SDS011;9137;50.960;3.118;2022-07-11T06:35:55;12.77;;;11.15;;
18023;SDS011;9137;50.960;3.118;2022-07-11T06:38:23;11.87;;;10.63;;
18023;SDS011;9137;50.960;3.118;2022-07-11T06:40:50;11.65;;;10.45;;
18023;SDS011;9137;50.960;3.118;2022-07-11T06:43:18;21.60;;;11.33;;
18023;SDS011;9137;50.960;3.118;2022-07-11T06:45:44;17.23;;;11.60;;
18023;SDS011;9137;50.960;3.118;2022-07-11T06:48:11;17.95;;;11.88;;
18023;SDS011;9137;50.960;3.118;2022-07-11T06:50:40;11.55;;;9.90;;
18023;SDS011;9137;50.960;3.118;2022-07-11T06:53:07;9.73;;;8.73;;
18023;SDS011;9137;50.960;3.118;2022-07-11T06:55:34;8.90;;;7.33;;
18023;SDS011;9137;50.960;3.118;2022-07-11T06:58:01;10.57;;;7.68;;
18023;SDS011;9137;50.960;3.118;2022-07-11T07:00:28;23.95;;;10.00;;
18023;SDS011;9137;50.960;3.118;2022-07-11T07:02:55;12.30;;;8.23;;
18023;SDS011;9137;50.960;3.118;2022-07-11T07:05:22;12.32;;;8.20;;
18023;SDS011;9137;50.960;3.118;2022-07-11T07:07:51;13.38;;;8.52;;
18023;SDS011;9137;50.960;3.118;2022-07-11T07:10:18;16.45;;;9.23;;
18023;SDS011;9137;50.960;3.118;2022-07-11T07:12:45;7.45;;;6.75;;
18023;SDS011;9137;50.960;3.118;2022-07-11T07:15:12;7.20;;;6.38;;
18023;SDS011;9137;50.960;3.118;2022-07-11T07:17:39;9.20;;;6.05;;
18023;SDS011;9137;50.960;3.118;2022-07-11T07:20:06;5.93;;;5.07;;
18023;SDS011;9137;50.960;3.118;2022-07-11T07:22:35;8.57;;;7.32;;
18023;SDS011;9137;50.960;3.118;2022-07-11T07:25:04;6.03;;;5.20;;
18023;SDS011;9137;50.960;3.118;2022-07-11T07:27:33;8.55;;;6.93;;
18023;SDS011;9137;50.960;3.118;2022-07-11T07:30:00;8.45;;;7.50;;
18023;SDS011;9137;50.960;3.118;2022-07-11T07:32:27;11.65;;;7.82;;
18023;SDS011;9137;50.960;3.118;2022-07-11T07:34:54;14.00;;;7.83;;
18023;SDS011;9137;50.960;3.118;2022-07-11T07:37:21;7.03;;;5.97;;
18023;SDS011;9137;50.960;3.118;2022-07-11T07:39:48;5.82;;;5.32;;
18023;SDS011;9137;50.960;3.118;2022-07-11T07:42:16;6.18;;;4.90;;
18023;SDS011;9137;50.960;3.118;2022-07-11T07:44:43;6.93;;;4.97;;
18023;SDS011;9137;50.960;3.118;2022-07-11T07:47:09;5.20;;;4.32;;
18023;SDS011;9137;50.960;3.118;2022-07-11T07:49:36;6.50;;;4.78;;
18023;SDS011;9137;50.960;3.118;2022-07-11T07:52:03;7.43;;;4.97;;
18023;SDS011;9137;50.960;3.118;2022-07-11T07:54:30;5.55;;;4.90;;
18023;SDS011;9137;50.960;3.118;2022-07-11T07:56:57;6.03;;;4.97;;
18023;SDS011;9137;50.960;3.118;2022-07-11T07:59:25;6.05;;;4.68;;
18023;SDS011;9137;50.960;3.118;2022-07-11T08:01:52;7.38;;;5.20;;
18023;SDS011;9137;50.960;3.118;2022-07-11T08:04:18;6.50;;;4.82;;
18023;SDS011;9137;50.960;3.118;2022-07-11T08:06:45;5.27;;;4.60;;
18023;SDS011;9137;50.960;3.118;2022-07-11T08:09:12;5.72;;;4.88;;
18023;SDS011;9137;50.960;3.118;2022-07-11T08:11:39;6.03;;;4.25;;
18023;SDS011;9137;50.960;3.118;2022-07-11T08:14:06;6.05;;;4.38;;
18023;SDS011;9137;50.960;3.118;2022-07-11T08:16:35;9.63;;;4.72;;
18023;SDS011;9137;50.960;3.118;2022-07-11T08:19:02;6.25;;;4.72;;
18023;SDS011;9137;50.960;3.118;2022-07-11T08:21:30;5.10;;;4.28;;
18023;SDS011;9137;50.960;3.118;2022-07-11T08:23:57;4.77;;;4.30;;
18023;SDS011;9137;50.960;3.118;2022-07-11T08:26:25;5.70;;;4.03;;
18023;SDS011;9137;50.960;3.118;2022-07-11T08:28:55;5.00;;;3.65;;
18023;SDS011;9137;50.960;3.118;2022-07-11T08:31:22;7.82;;;4.55;;
18023;SDS011;9137;50.960;3.118;2022-07-11T08:33:50;6.10;;;4.72;;
18023;SDS011;9137;50.960;3.118;2022-07-11T08:36:17;6.28;;;4.13;;
18023;SDS011;9137;50.960;3.118;2022-07-11T08:38:44;41.17;;;9.13;;
18023;SDS011;9137;50.960;3.118;2022-07-11T08:41:12;8.93;;;4.47;;
18023;SDS011;9137;50.960;3.118;2022-07-11T08:43:41;5.60;;;4.22;;
18023;SDS011;9137;50.960;3.118;2022-07-11T08:46:10;4.18;;;3.80;;
18023;SDS011;9137;50.960;3.118;2022-07-11T08:48:38;6.97;;;3.50;;
18023;SDS011;9137;50.960;3.118;2022-07-11T08:51:07;4.95;;;3.38;;
18023;SDS011;9137;50.960;3.118;2022-07-11T08:53:38;3.90;;;3.38;;
18023;SDS011;9137;50.960;3.118;2022-07-11T08:56:09;5.03;;;3.55;;
18023;SDS011;9137;50.960;3.118;2022-07-11T08:58:40;7.50;;;3.40;;
18023;SDS011;9137;50.960;3.118;2022-07-11T09:01:10;6.45;;;3.67;;
18023;SDS011;9137;50.960;3.118;2022-07-11T09:03:37;5.45;;;3.53;;
18023;SDS011;9137;50.960;3.118;2022-07-11T09:06:05;4.38;;;3.15;;
18023;SDS011;9137;50.960;3.118;2022-07-11T09:08:33;4.00;;;3.60;;
18023;SDS011;9137;50.960;3.118;2022-07-11T09:11:01;3.03;;;2.60;;
18023;SDS011;9137;50.960;3.118;2022-07-11T09:13:29;4.17;;;3.60;;
18023;SDS011;9137;50.960;3.118;2022-07-11T09:16:00;5.32;;;3.00;;
18023;SDS011;9137;50.960;3.118;2022-07-11T09:18:29;4.28;;;3.13;;
18023;SDS011;9137;50.960;3.118;2022-07-11T09:20:58;5.88;;;3.17;;
18023;SDS011;9137;50.960;3.118;2022-07-11T09:23:45;4.43;;;3.47;;
18023;SDS011;9137;50.960;3.118;2022-07-11T09:26:30;4.30;;;3.50;;
18023;SDS011;9137;50.960;3.118;2022-07-11T09:28:58;3.40;;;2.90;;
18023;SDS011;9137;50.960;3.118;2022-07-11T09:31:27;5.77;;;2.90;;
18023;SDS011;9137;50.960;3.118;2022-07-11T09:33:58;4.50;;;2.65;;
18023;SDS011;9137;50.960;3.118;2022-07-11T09:36:33;3.95;;;2.70;;
18023;SDS011;9137;50.960;3.118;2022-07-11T09:39:02;3.22;;;2.42;;
18023;SDS011;9137;50.960;3.118;2022-07-11T09:41:31;3.45;;;2.70;;
18023;SDS011;9137;50.960;3.118;2022-07-11T09:44:05;4.25;;;2.80;;
18023;SDS011;9137;50.960;3.118;2022-07-11T09:46:33;4.53;;;3.05;;
18023;SDS011;9137;50.960;3.118;2022-07-11T09:49:01;5.68;;;3.15;;
18023;SDS011;9137;50.960;3.118;2022-07-11T09:51:29;5.03;;;3.10;;
18023;SDS011;9137;50.960;3.118;2022-07-11T09:53:58;4.18;;;3.08;;
18023;SDS011;9137;50.960;3.118;2022-07-11T09:56:31;4.87;;;2.90;;
18023;SDS011;9137;50.960;3.118;2022-07-11T09:58:59;4.07;;;3.67;;
18023;SDS011;9137;50.960;3.118;2022-07-11T10:01:27;3.65;;;3.10;;
18023;SDS011;9137;50.960;3.118;2022-07-11T10:03:54;5.90;;;2.67;;
18023;SDS011;9137;50.960;3.118;2022-07-11T10:06:22;5.75;;;2.00;;
18023;SDS011;9137;50.960;3.118;2022-07-11T10:08:49;6.22;;;2.28;;
18023;SDS011;9137;50.960;3.118;2022-07-11T10:11:16;3.78;;;2.40;;
18023;SDS011;9137;50.960;3.118;2022-07-11T10:13:45;2.55;;;1.98;;
18023;SDS011;9137;50.960;3.118;2022-07-11T10:16:15;3.45;;;2.15;;
18023;SDS011;9137;50.960;3.118;2022-07-11T10:18:50;3.13;;;2.83;;
18023;SDS011;9137;50.960;3.118;2022-07-11T10:21:27;4.22;;;2.78;;
18023;SDS011;9137;50.960;3.118;2022-07-11T10:24:00;3.08;;;2.05;;
18023;SDS011;9137;50.960;3.118;2022-07-11T10:26:36;4.70;;;1.75;;
18023;SDS011;9137;50.960;3.118;2022-07-11T10:29:13;5.28;;;2.25;;
18023;SDS011;9137;50.960;3.118;2022-07-11T10:31:43;3.17;;;2.10;;
18023;SDS011;9137;50.960;3.118;2022-07-11T10:34:13;2.95;;;2.10;;
18023;SDS011;9137;50.960;3.118;2022-07-11T10:36:44;3.20;;;2.58;;
18023;SDS011;9137;50.960;3.118;2022-07-11T10:39:12;3.00;;;2.30;;
18023;SDS011;9137;50.960;3.118;2022-07-11T10:41:41;2.40;;;2.00;;
18023;SDS011;9137;50.960;3.118;2022-07-11T10:44:08;2.35;;;2.10;;
18023;SDS011;9137;50.960;3.118;2022-07-11T10:46:37;3.80;;;1.80;;
18023;SDS011;9137;50.960;3.118;2022-07-11T10:49:07;3.08;;;1.85;;
18023;SDS011;9137;50.960;3.118;2022-07-11T10:51:47;3.65;;;2.10;;
18023;SDS011;9137;50.960;3.118;2022-07-11T10:54:20;7.82;;;2.50;;
18023;SDS011;9137;50.960;3.118;2022-07-11T10:56:57;3.27;;;1.50;;
18023;SDS011;9137;50.960;3.118;2022-07-11T10:59:37;3.90;;;1.83;;
18023;SDS011;9137;50.960;3.118;2022-07-11T11:02:21;5.28;;;2.20;;
18023;SDS011;9137;50.960;3.118;2022-07-11T11:04:49;2.42;;;1.90;;
18023;SDS011;9137;50.960;3.118;2022-07-11T11:07:29;3.42;;;1.67;;
18023;SDS011;9137;50.960;3.118;2022-07-11T11:09:57;4.55;;;1.88;;
18023;SDS011;9137;50.960;3.118;2022-07-11T11:15:33;13.23;;;2.20;;
18023;SDS011;9137;50.960;3.118;2022-07-11T11:21:18;3.47;;;1.80;;
18023;SDS011;9137;50.960;3.118;2022-07-11T11:24:00;3.03;;;1.60;;
18023;SDS011;9137;50.960;3.118;2022-07-11T11:26:46;2.42;;;1.58;;
18023;SDS011;9137;50.960;3.118;2022-07-11T11:32:00;2.38;;;1.60;;
18023;SDS011;9137;50.960;3.118;2022-07-11T11:34:28;4.90;;;1.88;;
18023;SDS011;9137;50.960;3.118;2022-07-11T11:36:56;2.28;;;1.25;;
18023;SDS011;9137;50.960;3.118;2022-07-11T11:39:25;2.85;;;1.73;;
18023;SDS011;9137;50.960;3.118;2022-07-11T11:42:00;2.20;;;1.30;;
18023;SDS011;9137;50.960;3.118;2022-07-11T11:44:31;4.47;;;1.33;;
18023;SDS011;9137;50.960;3.118;2022-07-11T11:46:58;2.28;;;1.40;;
18023;SDS011;9137;50.960;3.118;2022-07-11T11:49:28;2.80;;;1.38;;
18023;SDS011;9137;50.960;3.118;2022-07-11T11:52:07;2.75;;;1.77;;
18023;SDS011;9137;50.960;3.118;2022-07-11T11:54:35;2.50;;;1.38;;
18023;SDS011;9137;50.960;3.118;2022-07-11T11:57:05;1.77;;;1.40;;
18023;SDS011;9137;50.960;3.118;2022-07-11T11:59:33;2.47;;;1.42;;
18023;SDS011;9137;50.960;3.118;2022-07-11T12:02:00;2.30;;;1.38;;
18023;SDS011;9137;50.960;3.118;2022-07-11T12:04:31;2.38;;;1.33;;
18023;SDS011;9137;50.960;3.118;2022-07-11T12:06:59;1.57;;;1.47;;
18023;SDS011;9137;50.960;3.118;2022-07-11T12:09:27;2.00;;;1.23;;
18023;SDS011;9137;50.960;3.118;2022-07-11T12:12:16;1.83;;;1.50;;
18023;SDS011;9137;50.960;3.118;2022-07-11T12:15:01;2.67;;;1.63;;
18023;SDS011;9137;50.960;3.118;2022-07-11T12:17:29;4.57;;;1.40;;
18023;SDS011;9137;50.960;3.118;2022-07-11T12:19:57;3.17;;;1.30;;
18023;SDS011;9137;50.960;3.118;2022-07-11T12:22:24;2.90;;;1.10;;
18023;SDS011;9137;50.960;3.118;2022-07-11T12:24:53;3.60;;;1.10;;
18023;SDS011;9137;50.960;3.118;2022-07-11T12:27:21;1.25;;;1.15;;
18023;SDS011;9137;50.960;3.118;2022-07-11T12:29:50;2.10;;;1.47;;
18023;SDS011;9137;50.960;3.118;2022-07-11T12:32:17;2.72;;;1.30;;
18023;SDS011;9137;50.960;3.118;2022-07-11T12:34:46;4.10;;;1.40;;
18023;SDS011;9137;50.960;3.118;2022-07-11T12:37:16;6.93;;;1.52;;
18023;SDS011;9137;50.960;3.118;2022-07-11T12:39:47;2.22;;;1.20;;
18023;SDS011;9137;50.960;3.118;2022-07-11T12:42:21;3.65;;;1.23;;
18023;SDS011;9137;50.960;3.118;2022-07-11T12:44:56;4.30;;;1.40;;
18023;SDS011;9137;50.960;3.118;2022-07-11T12:47:25;3.45;;;1.58;;
18023;SDS011;9137;50.960;3.118;2022-07-11T12:49:52;3.53;;;1.48;;
18023;SDS011;9137;50.960;3.118;2022-07-11T12:52:21;2.33;;;1.50;;
18023;SDS011;9137;50.960;3.118;2022-07-11T12:54:48;1.20;;;1.10;;
18023;SDS011;9137;50.960;3.118;2022-07-11T12:57:17;1.70;;;1.40;;
18023;SDS011;9137;50.960;3.118;2022-07-11T12:59:47;2.35;;;1.13;;
18023;SDS011;9137;50.960;3.118;2022-07-11T13:02:14;6.28;;;1.55;;
18023;SDS011;9137;50.960;3.118;2022-07-11T13:04:42;5.53;;;1.33;;
18023;SDS011;9137;50.960;3.118;2022-07-11T13:10:19;1.50;;;1.25;;
18023;SDS011;9137;50.960;3.118;2022-07-11T13:12:48;2.10;;;1.38;;
18023;SDS011;9137;50.960;3.118;2022-07-11T13:15:17;1.25;;;1.08;;
18023;SDS011;9137;50.960;3.118;2022-07-11T13:17:46;1.98;;;1.20;;
18023;SDS011;9137;50.960;3.118;2022-07-11T13:20:14;1.35;;;1.17;;
18023;SDS011;9137;50.960;3.118;2022-07-11T13:22:44;1.30;;;1.10;;
18023;SDS011;9137;50.960;3.118;2022-07-11T13:25:12;2.80;;;1.30;;
18023;SDS011;9137;50.960;3.118;2022-07-11T13:27:40;4.13;;;1.10;;
18023;SDS011;9137;50.960;3.118;2022-07-11T13:30:08;5.45;;;1.42;;
18023;SDS011;9137;50.960;3.118;2022-07-11T13:32:38;3.28;;;1.02;;
18023;SDS011;9137;50.960;3.118;2022-07-11T13:35:05;2.83;;;1.48;;
18023;SDS011;9137;50.960;3.118;2022-07-11T13:37:33;1.80;;;1.10;;
18023;SDS011;9137;50.960;3.118;2022-07-11T13:40:05;1.90;;;1.50;;
18023;SDS011;9137;50.960;3.118;2022-07-11T13:42:34;1.50;;;1.15;;
18023;SDS011;9137;50.960;3.118;2022-07-11T13:45:02;1.10;;;1.00;;
18023;SDS011;9137;50.960;3.118;2022-07-11T13:47:30;1.80;;;1.20;;
18023;SDS011;9137;50.960;3.118;2022-07-11T13:49:57;1.45;;;1.20;;
18023;SDS011;9137;50.960;3.118;2022-07-11T13:52:24;1.53;;;1.07;;
18023;SDS011;9137;50.960;3.118;2022-07-11T13:54:52;7.55;;;1.20;;
18023;SDS011;9137;50.960;3.118;2022-07-11T13:57:20;2.40;;;1.17;;
18023;SDS011;9137;50.960;3.118;2022-07-11T13:59:47;3.75;;;1.38;;
18023;SDS011;9137;50.960;3.118;2022-07-11T14:02:15;2.05;;;1.10;;
18023;SDS011;9137;50.960;3.118;2022-07-11T14:04:42;2.05;;;1.17;;
18023;SDS011;9137;50.960;3.118;2022-07-11T14:07:10;1.90;;;0.90;;
18023;SDS011;9137;50.960;3.118;2022-07-11T14:09:37;1.10;;;1.00;;
18023;SDS011;9137;50.960;3.118;2022-07-11T14:12:05;2.13;;;1.05;;
18023;SDS011;9137;50.960;3.118;2022-07-11T14:14:34;1.35;;;1.00;;
18023;SDS011;9137;50.960;3.118;2022-07-11T14:17:02;10.23;;;1.83;;
18023;SDS011;9137;50.960;3.118;2022-07-11T14:19:30;4.47;;;1.02;;
18023;SDS011;9137;50.960;3.118;2022-07-11T14:21:57;2.20;;;1.15;;
18023;SDS011;9137;50.960;3.118;2022-07-11T14:24:25;0.88;;;0.82;;
18023;SDS011;9137;50.960;3.118;2022-07-11T14:26:52;1.33;;;0.80;;
18023;SDS011;9137;50.960;3.118;2022-07-11T14:29:20;3.50;;;1.17;;
18023;SDS011;9137;50.960;3.118;2022-07-11T14:31:49;1.45;;;1.15;;
18023;SDS011;9137;50.960;3.118;2022-07-11T14:34:17;0.98;;;0.90;;
18023;SDS011;9137;50.960;3.118;2022-07-11T14:36:47;3.50;;;1.40;;
18023;SDS011;9137;50.960;3.118;2022-07-11T14:39:15;2.67;;;1.20;;
18023;SDS011;9137;50.960;3.118;2022-07-11T14:41:42;3.38;;;1.13;;
18023;SDS011;9137;50.960;3.118;2022-07-11T14:44:11;1.60;;;1.02;;
18023;SDS011;9137;50.960;3.118;2022-07-11T14:46:38;1.02;;;0.93;;
18023;SDS011;9137;50.960;3.118;2022-07-11T14:49:06;27.90;;;3.70;;
18023;SDS011;9137;50.960;3.118;2022-07-11T14:51:33;1.50;;;0.90;;
18023;SDS011;9137;50.960;3.118;2022-07-11T14:54:00;23.30;;;2.38;;
18023;SDS011;9137;50.960;3.118;2022-07-11T14:56:27;2.38;;;0.90;;
18023;SDS011;9137;50.960;3.118;2022-07-11T14:58:54;1.50;;;0.93;;
18023;SDS011;9137;50.960;3.118;2022-07-11T15:01:21;1.40;;;0.90;;
18023;SDS011;9137;50.960;3.118;2022-07-11T15:03:48;1.00;;;0.80;;
18023;SDS011;9137;50.960;3.118;2022-07-11T15:06:16;1.35;;;0.73;;
18023;SDS011;9137;50.960;3.118;2022-07-11T15:08:43;1.00;;;0.90;;
18023;SDS011;9137;50.960;3.118;2022-07-11T15:11:28;2.10;;;0.90;;